Terminal Aerodrome Forecast
Issued by NWS Cleveland, OH

Home | Current Version | Previous Version | Text Only | Print | Product List | Glossary Off
Versions: 1 2 3 4 5 6 7 8 9 10 11 12 13 14 15 16

000
FTUS41 KCLE 240943 AAB
TAFYNG
TAF AMD
KYNG 240943Z 2410/2506 24004KT P6SM SCT005
      TEMPO 2410/2414 4SM BR BKN005
     FM241400 28008KT 6SM BR VCSH BKN012
     FM241800 30012KT P6SM VCSH BKN025
     FM250500 35005KT P6SM SCT020=

USA.gov is the U.S. government's official web portal to all federal, state and local government web resources and services.